Scio Township, Michigan
Current Conditions -  °F | °C
As of 1:53 AM on Friday 31 Oct 2014 (Local Time) from KARB Reporting Station
Overcast Overcast  
Wind Chill: 40°   Ceiling: 5000
Heat Index: 44°   Visibility: 10mi
Dew Point: 34°   Wind: 7mph
Humidity: 68%   Direction: 230°SW
Pressure: 29.98"   Gusts: NA
Location:  42.2601°N, 83.8448°W
Report Text: KARB 310553Z AUTO 23006KT 10SM OVC050 07/01 A2998 RMK AO2 SLP154 T00670011 10078 20061 57015
Loading
Personal Weather Stations






























Interactive Weather Map
Tropical Storm Tracking
New forecast layout! Learn more

10-Day Weather Forecast

Advertisements
Track Severe Weather on mobile